Language: 


Des rapports , des résumés tant et plus, au choix de chacun....


Données Historiques de Météogheer
Journalier Rapport pour Février 15, 2017 Unitée:  Les deux    Impériale   Métrique
Suivant Jour »
Journalier Hebdomadaire Mensuel Annuel Sur mesure
  Max: Min: Moyenne:
Température: 61.3 °F /  16.3 °C 32 °F /  0.0 °C 48.4 °F /  9.1 °C
Point de rosée: 49.3 °F /  9.6 °C 32.5 °F /  0.3 °C 41.4 °F /  5.2 °C
Humidité: 96% 0% 77%
Vent: 16.6mph /  26.7km/h - 3.5mph /  5.7km/h
Rafales: 16.6mph /  26.7km/h - -
Vent- - SSW
Pression: 30.4 in /  1031.0 hPa 0 in /  0.0 hPa -
Pluie: 0 in /  0.0 mm    
Historical Graphs
 
 
Données tabulaires pour Février 15, 2017
Heure Température Point de rosée Pression Vent Vent Rafales Humidité Pluie Taux (Horaire) Conditions
00:01 45.3 °F /  7.4 °C 37.2 °F /  2.9 °C 30.4in /  1029.0hPa SSE 3.6mph /  5.8km/h 5.4mph /  8.7km/h 73% 0in /  0.0mm
00:06 45.1 °F /  7.3 °C 37 °F /  2.8 °C 30.4in /  1029.0hPa Calm   4.7mph /  7.6km/h 73% 0in /  0.0mm
00:11 45.1 °F /  7.3 °C 36.9 °F /  2.7 °C 30.4in /  1029.0hPa SSE 2.5mph /  4.0km/h 4.9mph /  7.9km/h 73% 0in /  0.0mm
00:16 45.1 °F /  7.3 °C 36.9 °F /  2.7 °C 30.4in /  1029.0hPa Calm   4.9mph /  7.9km/h 73% 0in /  0.0mm
00:21 45.1 °F /  7.3 °C 37.2 °F /  2.9 °C 30.4in /  1029.0hPa Calm   3.4mph /  5.5km/h 74% 0in /  0.0mm
00:26 45 °F /  7.2 °C 37 °F /  2.8 °C 30.4in /  1029.0hPa SE 3.1mph /  5.0km/h 4.3mph /  6.9km/h 74% 0in /  0.0mm
00:31 45 °F /  7.2 °C 37 °F /  2.8 °C 30.4in /  1029.0hPa SSE 1.1mph /  1.8km/h 4.3mph /  6.9km/h 74% 0in /  0.0mm
00:36 45 °F /  7.2 °C 37 °F /  2.8 °C 30.4in /  1029.0hPa SSE 3.4mph /  5.5km/h 5.6mph /  9.0km/h 74% 0in /  0.0mm
00:41 45 °F /  7.2 °C 37 °F /  2.8 °C 30.4in /  1029.0hPa Calm   5.6mph /  9.0km/h 74% 0in /  0.0mm
00:46 45 °F /  7.2 °C 37 °F /  2.8 °C 30.4in /  1029.0hPa SE 5.4mph /  8.7km/h 6mph /  9.7km/h 74% 0in /  0.0mm
00:51 45 °F /  7.2 °C 37 °F /  2.8 °C 30.4in /  1029.0hPa SSE 2.2mph /  3.5km/h 6mph /  9.7km/h 74% 0in /  0.0mm
00:56 44.8 °F /  7.1 °C 36.9 °F /  2.7 °C 30.4in /  1029.0hPa Calm   4.9mph /  7.9km/h 74% 0in /  0.0mm
01:01 44.4 °F /  6.9 °C 36.7 °F /  2.6 °C 30.4in /  1029.0hPa SSE 2.5mph /  4.0km/h 3.6mph /  5.8km/h 74% 0in /  0.0mm
01:06 44.4 °F /  6.9 °C 36.7 °F /  2.6 °C 30.4in /  1029.0hPa Calm   2.5mph /  4.0km/h 74% 0in /  0.0mm
01:11 44.2 °F /  6.8 °C 36.7 °F /  2.6 °C 30.4in /  1029.0hPa Calm   2.5mph /  4.0km/h 74% 0in /  0.0mm
01:16 44.2 °F /  6.8 °C 36.7 °F /  2.6 °C 30.4in /  1029.0hPa Calm   4.9mph /  7.9km/h 75% 0in /  0.0mm
01:21 44.1 °F /  6.7 °C 36.7 °F /  2.6 °C 30.4in /  1029.0hPa SE 1.6mph /  2.6km/h 4.9mph /  7.9km/h 75% 0in /  0.0mm
01:26 44.1 °F /  6.7 °C 36.7 °F /  2.6 °C 30.4in /  1029.0hPa SSE 6mph /  9.7km/h 6mph /  9.7km/h 75% 0in /  0.0mm
01:31 43.9 °F /  6.6 °C 36.3 °F /  2.4 °C 30.4in /  1029.0hPa SSE 4.9mph /  7.9km/h 7.2mph /  11.6km/h 75% 0in /  0.0mm
01:36 44.1 °F /  6.7 °C 36.7 °F /  2.6 °C 30.4in /  1029.0hPa SSE 5.8mph /  9.3km/h 7.2mph /  11.6km/h 75% 0in /  0.0mm
01:41 44.2 °F /  6.8 °C 37 °F /  2.8 °C 30.4in /  1029.0hPa SSE 5.6mph /  9.0km/h 6.5mph /  10.5km/h 76% 0in /  0.0mm
01:46 44.4 °F /  6.9 °C 37 °F /  2.8 °C 30.4in /  1029.0hPa South 3.8mph /  6.1km/h 6mph /  9.7km/h 75% 0in /  0.0mm
01:51 44.4 °F /  6.9 °C 37 °F /  2.8 °C 30.4in /  1029.0hPa SE 4.3mph /  6.9km/h 6.5mph /  10.5km/h 75% 0in /  0.0mm
02:02 32 °F /  0.0 °C 37 °F /  2.8 °C 0in /  0.0hPa SSE 6.5mph /  10.5km/h 6.5mph /  10.5km/h 0% 0in /  0.0mm
02:07 45 °F /  7.2 °C 37.4 °F /  3.0 °C 30.4in /  1029.0hPa Calm   6.5mph /  10.5km/h 75% 0in /  0.0mm
02:12 44.8 °F /  7.1 °C 37.2 °F /  2.9 °C 30.4in /  1029.0hPa SSE 4mph /  6.4km/h 6.5mph /  10.5km/h 75% 0in /  0.0mm
02:17 44.4 °F /  6.9 °C 36.7 °F /  2.6 °C 30.4in /  1029.0hPa Calm   5.6mph /  9.0km/h 74% 0in /  0.0mm
02:22 44.4 °F /  6.9 °C 36.7 °F /  2.6 °C 30.4in /  1029.0hPa SSE 1.1mph /  1.8km/h 5.6mph /  9.0km/h 74% 0in /  0.0mm
02:27 44.8 °F /  7.1 °C 36.9 °F /  2.7 °C 30.4in /  1029.0hPa Calm   5.6mph /  9.0km/h 74% 0in /  0.0mm
02:32 44.8 °F /  7.1 °C 36.9 °F /  2.7 °C 30.4in /  1029.0hPa South 2.2mph /  3.5km/h 5.4mph /  8.7km/h 74% 0in /  0.0mm
02:37 44.8 °F /  7.1 °C 36.9 °F /  2.7 °C 30.4in /  1029.0hPa Calm   3.4mph /  5.5km/h 74% 0in /  0.0mm
02:42 45 °F /  7.2 °C 37 °F /  2.8 °C 30.4in /  1029.0hPa South 4mph /  6.4km/h 4mph /  6.4km/h 74% 0in /  0.0mm
02:47 45.1 °F /  7.3 °C 37.2 °F /  2.9 °C 30.4in /  1029.0hPa SSE 1.3mph /  2.1km/h 6mph /  9.7km/h 74% 0in /  0.0mm
02:52 45.1 °F /  7.3 °C 37.2 °F /  2.9 °C 30.4in /  1029.0hPa SSE 4mph /  6.4km/h 6mph /  9.7km/h 74% 0in /  0.0mm
02:57 45.1 °F /  7.3 °C 37.2 °F /  2.9 °C 30.4in /  1029.0hPa Calm   5.4mph /  8.7km/h 74% 0in /  0.0mm
03:02 45.1 °F /  7.3 °C 37.4 °F /  3.0 °C 30.4in /  1029.0hPa SSE 3.6mph /  5.8km/h 4.3mph /  6.9km/h 74% 0in /  0.0mm
03:07 45.1 °F /  7.3 °C 37.4 °F /  3.0 °C 30.4in /  1029.0hPa South 3.6mph /  5.8km/h 4.3mph /  6.9km/h 74% 0in /  0.0mm
03:12 45.3 °F /  7.4 °C 37.6 °F /  3.1 °C 30.4in /  1029.0hPa Calm   4.7mph /  7.6km/h 74% 0in /  0.0mm
03:17 45.3 °F /  7.4 °C 37.6 °F /  3.1 °C 30.4in /  1029.0hPa Calm   4.7mph /  7.6km/h 74% 0in /  0.0mm
03:22 45.3 °F /  7.4 °C 37.6 °F /  3.1 °C 30.4in /  1029.0hPa Calm   3.8mph /  6.1km/h 74% 0in /  0.0mm
03:27 45.3 °F /  7.4 °C 37.6 °F /  3.1 °C 30.4in /  1029.0hPa Calm   3.8mph /  6.1km/h 74% 0in /  0.0mm
03:32 45.3 °F /  7.4 °C 37.2 °F /  2.9 °C 30.4in /  1029.0hPa Calm   5.8mph /  9.3km/h 73% 0in /  0.0mm
03:37 45.1 °F /  7.3 °C 37 °F /  2.8 °C 30.4in /  1029.0hPa Calm   5.8mph /  9.3km/h 73% 0in /  0.0mm
03:42 45.1 °F /  7.3 °C 37 °F /  2.8 °C 30.4in /  1029.0hPa Calm   3.8mph /  6.1km/h 73% 0in /  0.0mm
03:47 45.1 °F /  7.3 °C 37 °F /  2.8 °C 30.4in /  1029.0hPa Calm   3.8mph /  6.1km/h 73% 0in /  0.0mm
03:52 45.3 °F /  7.4 °C 37.6 °F /  3.1 °C 30.4in /  1029.0hPa Calm   4.5mph /  7.2km/h 74% 0in /  0.0mm
03:57 45.7 °F /  7.6 °C 37.4 °F /  3.0 °C 30.4in /  1029.0hPa Calm   6.3mph /  10.1km/h 73% 0in /  0.0mm
04:02 45.7 °F /  7.6 °C 37.4 °F /  3.0 °C 30.4in /  1029.0hPa Calm   6.3mph /  10.1km/h 73% 0in /  0.0mm
04:07 45.7 °F /  7.6 °C 37.4 °F /  3.0 °C 30.4in /  1029.0hPa Calm   2.5mph /  4.0km/h 73% 0in /  0.0mm
04:12 45.9 °F /  7.7 °C 37.6 °F /  3.1 °C 30.4in /  1029.0hPa SSE 4.3mph /  6.9km/h 6.3mph /  10.1km/h 73% 0in /  0.0mm
04:17 45.9 °F /  7.7 °C 37.6 °F /  3.1 °C 30.4in /  1029.0hPa Calm   6.3mph /  10.1km/h 73% 0in /  0.0mm
04:22 45.7 °F /  7.6 °C 37 °F /  2.8 °C 30.4in /  1029.0hPa Calm   4.3mph /  6.9km/h 72% 0in /  0.0mm
04:27 45.1 °F /  7.3 °C 36.7 °F /  2.6 °C 30.4in /  1029.0hPa Calm   3.6mph /  5.8km/h 72% 0in /  0.0mm
04:32 45.1 °F /  7.3 °C 36.7 °F /  2.6 °C 30.4in /  1029.0hPa Calm   4mph /  6.4km/h 72% 0in /  0.0mm
04:37 44.8 °F /  7.1 °C 36 °F /  2.2 °C 30.4in /  1029.0hPa South 2mph /  3.2km/h 6mph /  9.7km/h 71% 0in /  0.0mm
04:42 44.4 °F /  6.9 °C 35.8 °F /  2.1 °C 30.4in /  1029.0hPa Calm   6mph /  9.7km/h 71% 0in /  0.0mm
04:47 44.2 °F /  6.8 °C 35.4 °F /  1.9 °C 30.4in /  1029.0hPa SE 3.8mph /  6.1km/h 6mph /  9.7km/h 71% 0in /  0.0mm
04:52 44.1 °F /  6.7 °C 35.4 °F /  1.9 °C 30.4in /  1029.0hPa Calm   5.8mph /  9.3km/h 72% 0in /  0.0mm
04:57 43.9 °F /  6.6 °C 35.4 °F /  1.9 °C 30.4in /  1029.0hPa Calm   5.4mph /  8.7km/h 72% 0in /  0.0mm
05:02 43.3 °F /  6.3 °C 34.9 °F /  1.6 °C 30.4in /  1029.0hPa Calm   5.4mph /  8.7km/h 72% 0in /  0.0mm
05:07 43.2 °F /  6.2 °C 34.7 °F /  1.5 °C 30.4in /  1029.0hPa Calm   3.4mph /  5.5km/h 72% 0in /  0.0mm
05:12 42.8 °F /  6.0 °C 34.3 °F /  1.3 °C 30.4in /  1029.0hPa SSE 5.4mph /  8.7km/h 5.6mph /  9.0km/h 72% 0in /  0.0mm
05:17 42.8 °F /  6.0 °C 34.7 °F /  1.5 °C 30.4in /  1029.0hPa Calm   5.6mph /  9.0km/h 73% 0in /  0.0mm
05:23 42.6 °F /  5.9 °C 34.5 °F /  1.4 °C 30.4in /  1029.0hPa Calm   3.6mph /  5.8km/h 73% 0in /  0.0mm
05:27 42.3 °F /  5.7 °C 34.2 °F /  1.2 °C 30.4in /  1029.0hPa Calm   3.6mph /  5.8km/h 73% 0in /  0.0mm
05:33 41.9 °F /  5.5 °C 34 °F /  1.1 °C 30.4in /  1029.0hPa Calm   2.2mph /  3.5km/h 73% 0in /  0.0mm
05:38 41.5 °F /  5.3 °C 34 °F /  1.1 °C 30.4in /  1028.0hPa Calm   2.2mph /  3.5km/h 74% 0in /  0.0mm
05:43 41.5 °F /  5.3 °C 34 °F /  1.1 °C 30.4in /  1028.0hPa Calm   1.1mph /  1.8km/h 74% 0in /  0.0mm
05:48 41.5 °F /  5.3 °C 34.2 °F /  1.2 °C 30.4in /  1028.0hPa Calm   4.3mph /  6.9km/h 75% 0in /  0.0mm
05:53 41.5 °F /  5.3 °C 34.2 °F /  1.2 °C 30.4in /  1029.0hPa SSE 2.5mph /  4.0km/h 5.6mph /  9.0km/h 75% 0in /  0.0mm
05:58 41.5 °F /  5.3 °C 34.2 °F /  1.2 °C 30.4in /  1029.0hPa Calm   5.6mph /  9.0km/h 75% 0in /  0.0mm
06:03 41.4 °F /  5.2 °C 34 °F /  1.1 °C 30.4in /  1029.0hPa Calm   2.9mph /  4.7km/h 75% 0in /  0.0mm
06:08 41.2 °F /  5.1 °C 33.8 °F /  1.0 °C 30.4in /  1029.0hPa Calm   1.3mph /  2.1km/h 75% 0in /  0.0mm
06:13 41 °F /  5.0 °C 33.6 °F /  0.9 °C 30.4in /  1029.0hPa Calm   3.6mph /  5.8km/h 75% 0in /  0.0mm
06:18 40.8 °F /  4.9 °C 33.4 °F /  0.8 °C 30.4in /  1029.0hPa Calm   3.6mph /  5.8km/h 75% 0in /  0.0mm
06:23 40.8 °F /  4.9 °C 33.8 °F /  1.0 °C 30.4in /  1029.0hPa Calm   2.9mph /  4.7km/h 76% 0in /  0.0mm
06:28 40.8 °F /  4.9 °C 33.8 °F /  1.0 °C 30.4in /  1029.0hPa Calm   2.9mph /  4.7km/h 76% 0in /  0.0mm
06:33 41 °F /  5.0 °C 34 °F /  1.1 °C 30.4in /  1029.0hPa SSE 2.7mph /  4.3km/h 2.7mph /  4.3km/h 76% 0in /  0.0mm
06:38 40.8 °F /  4.9 °C 33.8 °F /  1.0 °C 30.4in /  1029.0hPa Calm   2.7mph /  4.3km/h 76% 0in /  0.0mm
06:43 40.6 °F /  4.8 °C 33.6 °F /  0.9 °C 30.4in /  1029.0hPa Calm   2.7mph /  4.3km/h 76% 0in /  0.0mm
06:48 40.3 °F /  4.6 °C 33.3 °F /  0.7 °C 30.4in /  1029.0hPa Calm   2.7mph /  4.3km/h 76% 0in /  0.0mm
06:53 39.9 °F /  4.4 °C 33.1 °F /  0.6 °C 30.4in /  1029.0hPa Calm   1.3mph /  2.1km/h 76% 0in /  0.0mm
06:58 39.7 °F /  4.3 °C 33.1 °F /  0.6 °C 30.4in /  1029.0hPa Calm   2.2mph /  3.5km/h 77% 0in /  0.0mm
07:03 39.7 °F /  4.3 °C 33.1 °F /  0.6 °C 30.4in /  1029.0hPa Calm   2.2mph /  3.5km/h 77% 0in /  0.0mm
07:08 39.6 °F /  4.2 °C 33.1 °F /  0.6 °C 30.4in /  1029.0hPa Calm     77% 0in /  0.0mm
07:13 39.4 °F /  4.1 °C 33.1 °F /  0.6 °C 30.4in /  1029.0hPa Calm     78% 0in /  0.0mm
07:18 39 °F /  3.9 °C 32.7 °F /  0.4 °C 30.4in /  1029.0hPa Calm     78% 0in /  0.0mm
07:23 38.8 °F /  3.8 °C 32.5 °F /  0.3 °C 30.4in /  1029.0hPa Calm     78% 0in /  0.0mm
07:28 38.8 °F /  3.8 °C 32.9 °F /  0.5 °C 30.4in /  1029.0hPa Calm     79% 0in /  0.0mm
07:33 38.8 °F /  3.8 °C 32.9 °F /  0.5 °C 30.4in /  1029.0hPa Calm     79% 0in /  0.0mm
07:38 38.5 °F /  3.6 °C 32.9 °F /  0.5 °C 30.4in /  1029.0hPa Calm     80% 0in /  0.0mm
07:43 38.5 °F /  3.6 °C 32.9 °F /  0.5 °C 30.4in /  1029.0hPa Calm   0.9mph /  1.4km/h 80% 0in /  0.0mm
07:48 38.1 °F /  3.4 °C 32.5 °F /  0.3 °C 30.4in /  1029.0hPa South 0.9mph /  1.4km/h 2.7mph /  4.3km/h 80% 0in /  0.0mm
07:53 38.1 °F /  3.4 °C 32.5 °F /  0.3 °C 30.4in /  1029.0hPa Calm   2.7mph /  4.3km/h 80% 0in /  0.0mm
07:58 38.1 °F /  3.4 °C 32.9 °F /  0.5 °C 30.4in /  1029.0hPa Calm   0.9mph /  1.4km/h 81% 0in /  0.0mm
08:03 38.1 °F /  3.4 °C 33.3 °F /  0.7 °C 30.4in /  1029.0hPa Calm     82% 0in /  0.0mm
08:08 38.1 °F /  3.4 °C 33.3 °F /  0.7 °C 30.4in /  1029.0hPa Calm     82% 0in /  0.0mm
08:13 37.9 °F /  3.3 °C 33.1 °F /  0.6 °C 30.4in /  1029.0hPa Calm     82% 0in /  0.0mm
08:18 38.1 °F /  3.4 °C 33.4 °F /  0.8 °C 30.4in /  1029.0hPa Calm   1.1mph /  1.8km/h 83% 0in /  0.0mm
08:23 38.1 °F /  3.4 °C 33.4 °F /  0.8 °C 30.4in /  1030.0hPa Calm   1.1mph /  1.8km/h 83% 0in /  0.0mm
08:28 38.5 °F /  3.6 °C 34 °F /  1.1 °C 30.4in /  1030.0hPa Calm     84% 0in /  0.0mm
08:33 38.5 °F /  3.6 °C 34.2 °F /  1.2 °C 30.4in /  1030.0hPa Calm     84% 0in /  0.0mm
08:38 38.8 °F /  3.8 °C 34.9 °F /  1.6 °C 30.4in /  1030.0hPa Calm     85% 0in /  0.0mm
08:43 39.4 °F /  4.1 °C 35.2 °F /  1.8 °C 30.4in /  1030.0hPa Calm     85% 0in /  0.0mm
08:48 39.7 °F /  4.3 °C 35.6 °F /  2.0 °C 30.4in /  1030.0hPa Calm     85% 0in /  0.0mm
08:53 40.3 °F /  4.6 °C 36.1 °F /  2.3 °C 30.4in /  1030.0hPa Calm   2.9mph /  4.7km/h 85% 0in /  0.0mm
08:58 41 °F /  5.0 °C 36.9 °F /  2.7 °C 30.4in /  1030.0hPa Calm   2.9mph /  4.7km/h 85% 0in /  0.0mm
09:03 41.7 °F /  5.4 °C 37.6 °F /  3.1 °C 30.4in /  1030.0hPa Calm   2.5mph /  4.0km/h 85% 0in /  0.0mm
09:08 42.4 °F /  5.8 °C 38.1 °F /  3.4 °C 30.4in /  1030.0hPa SE 3.8mph /  6.1km/h 4.3mph /  6.9km/h 85% 0in /  0.0mm
09:13 43.2 °F /  6.2 °C 38.8 °F /  3.8 °C 30.4in /  1030.0hPa SSE 4mph /  6.4km/h 6.3mph /  10.1km/h 85% 0in /  0.0mm
09:18 43.9 °F /  6.6 °C 39.4 °F /  4.1 °C 30.4in /  1030.0hPa Calm   6.3mph /  10.1km/h 84% 0in /  0.0mm
09:23 44.2 °F /  6.8 °C 39.6 °F /  4.2 °C 30.4in /  1030.0hPa SSE 2.5mph /  4.0km/h 6.3mph /  10.1km/h 83% 0in /  0.0mm
09:28 45 °F /  7.2 °C 39.7 °F /  4.3 °C 30.4in /  1030.0hPa SSE 2.2mph /  3.5km/h 6.3mph /  10.1km/h 82% 0in /  0.0mm
09:33 45.7 °F /  7.6 °C 40.1 °F /  4.5 °C 30.4in /  1030.0hPa SSE 2.5mph /  4.0km/h 6.3mph /  10.1km/h 81% 0in /  0.0mm
09:38 45.9 °F /  7.7 °C 40.1 °F /  4.5 °C 30.4in /  1030.0hPa SSE 1.3mph /  2.1km/h 5.4mph /  8.7km/h 80% 0in /  0.0mm
09:43 46.2 °F /  7.9 °C 40.1 °F /  4.5 °C 30.4in /  1030.0hPa SW 6.5mph /  10.5km/h 6.5mph /  10.5km/h 79% 0in /  0.0mm
09:48 46.9 °F /  8.3 °C 40.5 °F /  4.7 °C 30.4in /  1030.0hPa South 1.3mph /  2.1km/h 6.5mph /  10.5km/h 78% 0in /  0.0mm
09:53 47.7 °F /  8.7 °C 41.2 °F /  5.1 °C 30.4in /  1030.0hPa Calm   5.4mph /  8.7km/h 78% 0in /  0.0mm
09:58 47.7 °F /  8.7 °C 40.5 °F /  4.7 °C 30.4in /  1030.0hPa South 2.5mph /  4.0km/h 5.8mph /  9.3km/h 76% 0in /  0.0mm
10:03 47.5 °F /  8.6 °C 40.3 °F /  4.6 °C 30.4in /  1030.0hPa South 5.6mph /  9.0km/h 5.8mph /  9.3km/h 76% 0in /  0.0mm
10:08 48 °F /  8.9 °C 40.5 °F /  4.7 °C 30.4in /  1030.0hPa South 3.1mph /  5.0km/h 5.6mph /  9.0km/h 75% 0in /  0.0mm
10:13 48.6 °F /  9.2 °C 41 °F /  5.0 °C 30.4in /  1030.0hPa South 1.6mph /  2.6km/h 5.4mph /  8.7km/h 75% 0in /  0.0mm
10:18 49.3 °F /  9.6 °C 41.7 °F /  5.4 °C 30.4in /  1030.0hPa SSE 4.9mph /  7.9km/h 5.6mph /  9.0km/h 75% 0in /  0.0mm
10:23 49.3 °F /  9.6 °C 41.4 °F /  5.2 °C 30.4in /  1030.0hPa SSW 6.3mph /  10.1km/h 6.3mph /  10.1km/h 74% 0in /  0.0mm
10:28 49.1 °F /  9.5 °C 40.8 °F /  4.9 °C 30.4in /  1030.0hPa SSE 2.7mph /  4.3km/h 6.3mph /  10.1km/h 73% 0in /  0.0mm
10:33 48.9 °F /  9.4 °C 40.6 °F /  4.8 °C 30.4in /  1030.0hPa Calm   10.1mph /  16.3km/h 73% 0in /  0.0mm
10:38 49.1 °F /  9.5 °C 40.8 °F /  4.9 °C 30.4in /  1030.0hPa SSW 2.7mph /  4.3km/h 10.1mph /  16.3km/h 73% 0in /  0.0mm
10:43 49.3 °F /  9.6 °C 41.4 °F /  5.2 °C 30.4in /  1030.0hPa South 3.8mph /  6.1km/h 5.6mph /  9.0km/h 74% 0in /  0.0mm
10:48 49.6 °F /  9.8 °C 41.4 °F /  5.2 °C 30.4in /  1030.0hPa SW 5.4mph /  8.7km/h 6.3mph /  10.1km/h 73% 0in /  0.0mm
10:53 50.4 °F /  10.2 °C 42.4 °F /  5.8 °C 30.4in /  1031.0hPa South 0.9mph /  1.4km/h 6.3mph /  10.1km/h 74% 0in /  0.0mm
10:58 51.4 °F /  10.8 °C 43 °F /  6.1 °C 30.4in /  1031.0hPa South 4.9mph /  7.9km/h 6.5mph /  10.5km/h 73% 0in /  0.0mm
11:03 51.6 °F /  10.9 °C 42.4 °F /  5.8 °C 30.4in /  1031.0hPa South 9.8mph /  15.8km/h 9.8mph /  15.8km/h 71% 0in /  0.0mm
11:08 52.2 °F /  11.2 °C 43 °F /  6.1 °C 30.4in /  1030.0hPa South 2.9mph /  4.7km/h 10.3mph /  16.6km/h 71% 0in /  0.0mm
11:13 52.5 °F /  11.4 °C 43.2 °F /  6.2 °C 30.4in /  1030.0hPa SSE 5.6mph /  9.0km/h 10.3mph /  16.6km/h 70% 0in /  0.0mm
11:18 53.2 °F /  11.8 °C 43.5 °F /  6.4 °C 30.4in /  1030.0hPa South 6mph /  9.7km/h 8.5mph /  13.7km/h 70% 0in /  0.0mm
11:23 53.2 °F /  11.8 °C 43 °F /  6.1 °C 30.4in /  1030.0hPa SSW 7.2mph /  11.6km/h 8.5mph /  13.7km/h 68% 0in /  0.0mm
11:28 53.2 °F /  11.8 °C 43 °F /  6.1 °C 30.4in /  1030.0hPa SSE 8.5mph /  13.7km/h 8.5mph /  13.7km/h 68% 0in /  0.0mm
11:33 53.2 °F /  11.8 °C 42.6 °F /  5.9 °C 30.4in /  1030.0hPa South 7.2mph /  11.6km/h 8.7mph /  14.0km/h 67% 0in /  0.0mm
11:38 53.4 °F /  11.9 °C 42.8 °F /  6.0 °C 30.4in /  1030.0hPa South 8.1mph /  13.0km/h 10.7mph /  17.2km/h 67% 0in /  0.0mm
11:44 54 °F /  12.2 °C 43.5 °F /  6.4 °C 30.4in /  1030.0hPa SSE 6.3mph /  10.1km/h 10.7mph /  17.2km/h 68% 0in /  0.0mm
11:49 54.1 °F /  12.3 °C 43.9 °F /  6.6 °C 30.4in /  1030.0hPa SSE 8.5mph /  13.7km/h 9.6mph /  15.4km/h 68% 0in /  0.0mm
11:54 54.3 °F /  12.4 °C 43.7 °F /  6.5 °C 30.4in /  1030.0hPa SSW 5.6mph /  9.0km/h 8.5mph /  13.7km/h 67% 0in /  0.0mm
11:59 54.9 °F /  12.7 °C 44.2 °F /  6.8 °C 30.4in /  1030.0hPa South 4.7mph /  7.6km/h 8.5mph /  13.7km/h 67% 0in /  0.0mm
12:04 55.2 °F /  12.9 °C 44.4 °F /  6.9 °C 30.4in /  1030.0hPa South 7.6mph /  12.2km/h 8.7mph /  14.0km/h 67% 0in /  0.0mm
12:09 55.6 °F /  13.1 °C 44.8 °F /  7.1 °C 30.4in /  1030.0hPa SSW 6.5mph /  10.5km/h 9.6mph /  15.4km/h 67% 0in /  0.0mm
12:14 55.9 °F /  13.3 °C 45.1 °F /  7.3 °C 30.4in /  1030.0hPa South 8.7mph /  14.0km/h 9.6mph /  15.4km/h 67% 0in /  0.0mm
12:19 56.1 °F /  13.4 °C 44.6 °F /  7.0 °C 30.4in /  1030.0hPa SSE 7.8mph /  12.6km/h 10.5mph /  16.9km/h 65% 0in /  0.0mm
12:24 56.1 °F /  13.4 °C 45 °F /  7.2 °C 30.4in /  1030.0hPa SSE 7.6mph /  12.2km/h 13mph /  20.9km/h 66% 0in /  0.0mm
12:29 56.7 °F /  13.7 °C 45.5 °F /  7.5 °C 30.4in /  1030.0hPa ESE 5.8mph /  9.3km/h 13mph /  20.9km/h 66% 0in /  0.0mm
12:34 56.7 °F /  13.7 °C 45.1 °F /  7.3 °C 30.4in /  1030.0hPa SSW 5.6mph /  9.0km/h 10.1mph /  16.3km/h 65% 0in /  0.0mm
12:39 56.8 °F /  13.8 °C 45.7 °F /  7.6 °C 30.4in /  1029.0hPa SSW 9.8mph /  15.8km/h 12.3mph /  19.8km/h 66% 0in /  0.0mm
12:44 57 °F /  13.9 °C 45.3 °F /  7.4 °C 30.4in /  1029.0hPa SSE 7.6mph /  12.2km/h 12.3mph /  19.8km/h 65% 0in /  0.0mm
12:49 57.2 °F /  14.0 °C 46 °F /  7.8 °C 30.4in /  1029.0hPa South 5.8mph /  9.3km/h 9.8mph /  15.8km/h 66% 0in /  0.0mm
12:54 57.7 °F /  14.3 °C 46.6 °F /  8.1 °C 30.4in /  1029.0hPa South 8.1mph /  13.0km/h 11mph /  17.7km/h 66% 0in /  0.0mm
12:59 57.7 °F /  14.3 °C 46.6 °F /  8.1 °C 30.4in /  1029.0hPa South 4.3mph /  6.9km/h 11mph /  17.7km/h 66% 0in /  0.0mm
13:04 57.9 °F /  14.4 °C 46.2 °F /  7.9 °C 30.4in /  1029.0hPa SSE 4mph /  6.4km/h 11mph /  17.7km/h 65% 0in /  0.0mm
13:09 58.3 °F /  14.6 °C 46.9 °F /  8.3 °C 30.4in /  1028.0hPa South 4.9mph /  7.9km/h 11mph /  17.7km/h 66% 0in /  0.0mm
13:14 58.6 °F /  14.8 °C 46.9 °F /  8.3 °C 30.4in /  1028.0hPa SSE 9.8mph /  15.8km/h 10.5mph /  16.9km/h 65% 0in /  0.0mm
13:19 58.8 °F /  14.9 °C 47.1 °F /  8.4 °C 30.4in /  1028.0hPa South 4.3mph /  6.9km/h 10.5mph /  16.9km/h 65% 0in /  0.0mm
13:24 59.2 °F /  15.1 °C 47.5 °F /  8.6 °C 30.4in /  1029.0hPa South 4.3mph /  6.9km/h 11mph /  17.7km/h 65% 0in /  0.0mm
13:29 59.2 °F /  15.1 °C 47.5 °F /  8.6 °C 30.4in /  1029.0hPa SSE 6.5mph /  10.5km/h 11mph /  17.7km/h 65% 0in /  0.0mm
13:34 59.2 °F /  15.1 °C 47.5 °F /  8.6 °C 30.4in /  1029.0hPa SSW 7.2mph /  11.6km/h 12.5mph /  20.1km/h 65% 0in /  0.0mm
13:39 59.4 °F /  15.2 °C 47.7 °F /  8.7 °C 30.4in /  1029.0hPa South 5.8mph /  9.3km/h 12.5mph /  20.1km/h 65% 0in /  0.0mm
13:44 59.7 °F /  15.4 °C 47.8 °F /  8.8 °C 30.4in /  1029.0hPa South 7.2mph /  11.6km/h 10.7mph /  17.2km/h 65% 0in /  0.0mm
13:49 59.9 °F /  15.5 °C 48 °F /  8.9 °C 30.4in /  1029.0hPa SW 6.7mph /  10.8km/h 10.1mph /  16.3km/h 65% 0in /  0.0mm
13:54 60.1 °F /  15.6 °C 48.2 °F /  9.0 °C 30.4in /  1029.0hPa SSW 8.5mph /  13.7km/h 13mph /  20.9km/h 65% 0in /  0.0mm
14:00 60.8 °F /  16.0 °C 49.3 °F /  9.6 °C 30.4in /  1029.0hPa SSE 7.4mph /  11.9km/h 13mph /  20.9km/h 66% 0in /  0.0mm
14:05 61 °F /  16.1 °C 49.1 °F /  9.5 °C 30.4in /  1029.0hPa South 4.3mph /  6.9km/h 11.2mph /  18.0km/h 65% 0in /  0.0mm
14:10 61.2 °F /  16.2 °C 49.3 °F /  9.6 °C 30.4in /  1029.0hPa SSW 7.4mph /  11.9km/h 11.2mph /  18.0km/h 65% 0in /  0.0mm
14:15 61.2 °F /  16.2 °C 48.4 °F /  9.1 °C 30.4in /  1029.0hPa South 10.7mph /  17.2km/h 13.2mph /  21.2km/h 63% 0in /  0.0mm
14:20 61.2 °F /  16.2 °C 48.7 °F /  9.3 °C 30.4in /  1029.0hPa South 5.4mph /  8.7km/h 13.2mph /  21.2km/h 64% 0in /  0.0mm
14:25 61.2 °F /  16.2 °C 48.7 °F /  9.3 °C 30.4in /  1029.0hPa South 10.5mph /  16.9km/h 13.6mph /  21.9km/h 64% 0in /  0.0mm
14:30 61.2 °F /  16.2 °C 48.4 °F /  9.1 °C 30.4in /  1029.0hPa South 10.3mph /  16.6km/h 13.6mph /  21.9km/h 63% 0in /  0.0mm
14:35 61.2 °F /  16.2 °C 48.4 °F /  9.1 °C 30.4in /  1029.0hPa South 12.5mph /  20.1km/h 13.9mph /  22.4km/h 63% 0in /  0.0mm
14:40 61 °F /  16.1 °C 47.8 °F /  8.8 °C 30.4in /  1029.0hPa South 8.5mph /  13.7km/h 13.9mph /  22.4km/h 62% 0in /  0.0mm
14:45 61.2 °F /  16.2 °C 48 °F /  8.9 °C 30.4in /  1029.0hPa SSW 9.8mph /  15.8km/h 12.5mph /  20.1km/h 62% 0in /  0.0mm
14:50 61.3 °F /  16.3 °C 48.6 °F /  9.2 °C 30.4in /  1029.0hPa SW 5.6mph /  9.0km/h 10.7mph /  17.2km/h 63% 0in /  0.0mm
14:55 61.2 °F /  16.2 °C 47.5 °F /  8.6 °C 30.4in /  1029.0hPa South 8.5mph /  13.7km/h 13.4mph /  21.6km/h 61% 0in /  0.0mm
15:00 61.2 °F /  16.2 °C 47.5 °F /  8.6 °C 30.4in /  1029.0hPa SSW 8.7mph /  14.0km/h 13.4mph /  21.6km/h 61% 0in /  0.0mm
15:05 61.3 °F /  16.3 °C 48 °F /  8.9 °C 30.4in /  1029.0hPa South 10.7mph /  17.2km/h 11.9mph /  19.1km/h 62% 0in /  0.0mm
15:10 61.2 °F /  16.2 °C 48.4 °F /  9.1 °C 30.4in /  1029.0hPa SW 7.2mph /  11.6km/h 11.9mph /  19.1km/h 63% 0in /  0.0mm
15:15 61.2 °F /  16.2 °C 48.4 °F /  9.1 °C 30.4in /  1029.0hPa SSW 12.1mph /  19.5km/h 12.1mph /  19.5km/h 63% 0in /  0.0mm
15:20 61 °F /  16.1 °C 48.2 °F /  9.0 °C 30.4in /  1029.0hPa South 12.3mph /  19.8km/h 12.5mph /  20.1km/h 63% 0in /  0.0mm
15:25 61.2 °F /  16.2 °C 48.4 °F /  9.1 °C 30.4in /  1029.0hPa SSW 5.4mph /  8.7km/h 12.5mph /  20.1km/h 63% 0in /  0.0mm
15:31 61 °F /  16.1 °C 48.2 °F /  9.0 °C 30.4in /  1029.0hPa SSW 9.8mph /  15.8km/h 11.2mph /  18.0km/h 63% 0in /  0.0mm
15:36 60.4 °F /  15.8 °C 47.3 °F /  8.5 °C 30.4in /  1029.0hPa SSW 6.9mph /  11.1km/h 12.5mph /  20.1km/h 62% 0in /  0.0mm
15:41 60.3 °F /  15.7 °C 47.7 °F /  8.7 °C 30.4in /  1029.0hPa SSW 11.4mph /  18.3km/h 12.5mph /  20.1km/h 63% 0in /  0.0mm
15:46 59.2 °F /  15.1 °C 46.9 °F /  8.3 °C 30.4in /  1029.0hPa SSW 6.3mph /  10.1km/h 13.2mph /  21.2km/h 64% 0in /  0.0mm
15:51 59 °F /  15.0 °C 47.1 °F /  8.4 °C 30.4in /  1029.0hPa SW 6.5mph /  10.5km/h 13.2mph /  21.2km/h 65% 0in /  0.0mm
15:56 59.5 °F /  15.3 °C 48 °F /  8.9 °C 30.4in /  1029.0hPa South 8.7mph /  14.0km/h 12.3mph /  19.8km/h 66% 0in /  0.0mm
16:01 59.5 °F /  15.3 °C 48 °F /  8.9 °C 30.4in /  1029.0hPa SSW 10.5mph /  16.9km/h 14.8mph /  23.8km/h 66% 0in /  0.0mm
16:06 59.5 °F /  15.3 °C 48 °F /  8.9 °C 30.4in /  1029.0hPa South 10.1mph /  16.3km/h 14.8mph /  23.8km/h 66% 0in /  0.0mm
16:11 59.5 °F /  15.3 °C 48.6 °F /  9.2 °C 30.4in /  1029.0hPa South 16.6mph /  26.7km/h 16.6mph /  26.7km/h 67% 0in /  0.0mm
16:16 59.4 °F /  15.2 °C 48 °F /  8.9 °C 30.4in /  1029.0hPa South 10.1mph /  16.3km/h 16.6mph /  26.7km/h 66% 0in /  0.0mm
16:21 59.4 °F /  15.2 °C 48.4 °F /  9.1 °C 30.4in /  1029.0hPa South 8.5mph /  13.7km/h 12.8mph /  20.6km/h 67% 0in /  0.0mm
16:26 59 °F /  15.0 °C 48 °F /  8.9 °C 30.4in /  1029.0hPa South 7.4mph /  11.9km/h 12.5mph /  20.1km/h 67% 0in /  0.0mm
16:31 58.5 °F /  14.7 °C 47.8 °F /  8.8 °C 30.4in /  1029.0hPa South 7.2mph /  11.6km/h 11mph /  17.7km/h 68% 0in /  0.0mm
16:36 57.9 °F /  14.4 °C 47.8 °F /  8.8 °C 30.4in /  1029.0hPa SSW 7.6mph /  12.2km/h 11mph /  17.7km/h 69% 0in /  0.0mm
16:41 57.4 °F /  14.1 °C 47.7 °F /  8.7 °C 30.4in /  1029.0hPa SSW 6mph /  9.7km/h 9.8mph /  15.8km/h 70% 0in /  0.0mm
16:46 57 °F /  13.9 °C 47.5 °F /  8.6 °C 30.4in /  1029.0hPa South 6mph /  9.7km/h 9.8mph /  15.8km/h 70% 0in /  0.0mm
16:51 56.8 °F /  13.8 °C 47.8 °F /  8.8 °C 30.4in /  1029.0hPa SSW 4.9mph /  7.9km/h 8.5mph /  13.7km/h 72% 0in /  0.0mm
16:56 56.8 °F /  13.8 °C 47.8 °F /  8.8 °C 30.4in /  1029.0hPa WSW 5.4mph /  8.7km/h 8.1mph /  13.0km/h 72% 0in /  0.0mm
17:01 56.7 °F /  13.7 °C 48 °F /  8.9 °C 30.4in /  1029.0hPa South 5.6mph /  9.0km/h 7.8mph /  12.6km/h 73% 0in /  0.0mm
17:06 56.7 °F /  13.7 °C 48 °F /  8.9 °C 30.4in /  1029.0hPa South 4.9mph /  7.9km/h 8.1mph /  13.0km/h 73% 0in /  0.0mm
17:11 56.5 °F /  13.6 °C 48.4 °F /  9.1 °C 30.4in /  1029.0hPa South 4mph /  6.4km/h 10.3mph /  16.6km/h 74% 0in /  0.0mm
17:16 56.5 °F /  13.6 °C 48.4 °F /  9.1 °C 30.4in /  1029.0hPa South 3.6mph /  5.8km/h 10.3mph /  16.6km/h 74% 0in /  0.0mm
17:21 56.3 °F /  13.5 °C 48.2 °F /  9.0 °C 30.4in /  1029.0hPa SSW 6.3mph /  10.1km/h 9.8mph /  15.8km/h 74% 0in /  0.0mm
17:26 56.3 °F /  13.5 °C 48.2 °F /  9.0 °C 30.4in /  1029.0hPa South 4.3mph /  6.9km/h 7.4mph /  11.9km/h 74% 0in /  0.0mm
17:31 56.1 °F /  13.4 °C 48.4 °F /  9.1 °C 30.4in /  1029.0hPa WSW 3.8mph /  6.1km/h 6.3mph /  10.1km/h 75% 0in /  0.0mm
17:36 55.6 °F /  13.1 °C 48.2 °F /  9.0 °C 30.4in /  1029.0hPa West 8.1mph /  13.0km/h 13.6mph /  21.9km/h 76% 0in /  0.0mm
17:41 55.2 °F /  12.9 °C 48.2 °F /  9.0 °C 30.4in /  1029.0hPa WSW 6.7mph /  10.8km/h 13.6mph /  21.9km/h 77% 0in /  0.0mm
17:46 54.3 °F /  12.4 °C 47.7 °F /  8.7 °C 30.4in /  1029.0hPa West 5.6mph /  9.0km/h 12.3mph /  19.8km/h 78% 0in /  0.0mm
17:51 54 °F /  12.2 °C 47.5 °F /  8.6 °C 30.4in /  1029.0hPa West 5.4mph /  8.7km/h 8.1mph /  13.0km/h 79% 0in /  0.0mm
17:56 53.4 °F /  11.9 °C 47.5 °F /  8.6 °C 30.4in /  1029.0hPa West 3.1mph /  5.0km/h 7.6mph /  12.2km/h 80% 0in /  0.0mm
18:01 53.2 °F /  11.8 °C 47.5 °F /  8.6 °C 30.4in /  1029.0hPa West 3.8mph /  6.1km/h 5.8mph /  9.3km/h 81% 0in /  0.0mm
18:06 52.9 °F /  11.6 °C 47.5 °F /  8.6 °C 30.4in /  1029.0hPa WSW 5.6mph /  9.0km/h 6.7mph /  10.8km/h 82% 0in /  0.0mm
18:11 52.5 °F /  11.4 °C 47.3 °F /  8.5 °C 30.4in /  1028.0hPa WSW 5.6mph /  9.0km/h 7.4mph /  11.9km/h 82% 0in /  0.0mm
18:16 52.5 °F /  11.4 °C 47.7 °F /  8.7 °C 30.4in /  1028.0hPa West 7.8mph /  12.6km/h 7.8mph /  12.6km/h 83% 0in /  0.0mm
18:21 52.3 °F /  11.3 °C 47.7 °F /  8.7 °C 30.4in /  1028.0hPa West 5.6mph /  9.0km/h 7.8mph /  12.6km/h 84% 0in /  0.0mm
18:26 52.2 °F /  11.2 °C 47.5 °F /  8.6 °C 30.4in /  1029.0hPa West 5.8mph /  9.3km/h 7.6mph /  12.2km/h 84% 0in /  0.0mm
18:31 51.8 °F /  11.0 °C 47.1 °F /  8.4 °C 30.4in /  1029.0hPa WSW 5.8mph /  9.3km/h 8.1mph /  13.0km/h 84% 0in /  0.0mm
18:36 51.6 °F /  10.9 °C 46.9 °F /  8.3 °C 30.4in /  1029.0hPa WSW 5.8mph /  9.3km/h 8.1mph /  13.0km/h 84% 0in /  0.0mm
18:41 51.3 °F /  10.7 °C 46.9 °F /  8.3 °C 30.4in /  1029.0hPa WSW 5.8mph /  9.3km/h 7.8mph /  12.6km/h 85% 0in /  0.0mm
18:46 51.1 °F /  10.6 °C 46.8 °F /  8.2 °C 30.4in /  1029.0hPa West 5.4mph /  8.7km/h 7.6mph /  12.2km/h 85% 0in /  0.0mm
18:51 50.9 °F /  10.5 °C 46.6 °F /  8.1 °C 30.4in /  1029.0hPa WSW 3.6mph /  5.8km/h 5.8mph /  9.3km/h 85% 0in /  0.0mm
18:56 50.5 °F /  10.3 °C 46.2 °F /  7.9 °C 30.4in /  1029.0hPa WSW 3.6mph /  5.8km/h 5.8mph /  9.3km/h 85% 0in /  0.0mm
19:02 50.4 °F /  10.2 °C 46 °F /  7.8 °C 30.4in /  1029.0hPa WSW 3.1mph /  5.0km/h 4mph /  6.4km/h 85% 0in /  0.0mm
19:07 50.2 °F /  10.1 °C 46 °F /  7.8 °C 30.4in /  1029.0hPa West 3.8mph /  6.1km/h 4mph /  6.4km/h 86% 0in /  0.0mm
19:12 50 °F /  10.0 °C 46 °F /  7.8 °C 30.4in /  1029.0hPa WSW 3.4mph /  5.5km/h 4mph /  6.4km/h 86% 0in /  0.0mm
19:17 50 °F /  10.0 °C 46 °F /  7.8 °C 30.4in /  1029.0hPa West 3.1mph /  5.0km/h 3.8mph /  6.1km/h 86% 0in /  0.0mm
19:22 50 °F /  10.0 °C 46.2 °F /  7.9 °C 30.4in /  1029.0hPa West 3.8mph /  6.1km/h 4.3mph /  6.9km/h 87% 0in /  0.0mm
19:27 49.8 °F /  9.9 °C 46 °F /  7.8 °C 30.4in /  1030.0hPa WSW 2.9mph /  4.7km/h 4.3mph /  6.9km/h 87% 0in /  0.0mm
19:32 49.8 °F /  9.9 °C 46.4 °F /  8.0 °C 30.4in /  1030.0hPa WSW 3.4mph /  5.5km/h 3.8mph /  6.1km/h 88% 0in /  0.0mm
19:37 49.6 °F /  9.8 °C 46.2 °F /  7.9 °C 30.4in /  1030.0hPa West 3.8mph /  6.1km/h 4mph /  6.4km/h 88% 0in /  0.0mm
19:42 49.6 °F /  9.8 °C 46.2 °F /  7.9 °C 30.4in /  1030.0hPa WSW 3.6mph /  5.8km/h 4mph /  6.4km/h 88% 0in /  0.0mm
19:47 49.6 °F /  9.8 °C 46.6 °F /  8.1 °C 30.4in /  1030.0hPa West 3.6mph /  5.8km/h 5.4mph /  8.7km/h 89% 0in /  0.0mm
19:52 49.6 °F /  9.8 °C 46.6 °F /  8.1 °C 30.4in /  1030.0hPa WSW 6mph /  9.7km/h 6mph /  9.7km/h 89% 0in /  0.0mm
19:57 49.6 °F /  9.8 °C 46.6 °F /  8.1 °C 30.4in /  1030.0hPa West 5.8mph /  9.3km/h 6mph /  9.7km/h 89% 0in /  0.0mm
20:02 49.8 °F /  9.9 °C 47.3 °F /  8.5 °C 30.4in /  1030.0hPa WSW 5.8mph /  9.3km/h 6mph /  9.7km/h 91% 0in /  0.0mm
20:07 49.8 °F /  9.9 °C 47.3 °F /  8.5 °C 30.4in /  1030.0hPa West 3.8mph /  6.1km/h 6.5mph /  10.5km/h 91% 0in /  0.0mm
20:12 49.6 °F /  9.8 °C 47.1 °F /  8.4 °C 30.4in /  1030.0hPa West 6.3mph /  10.1km/h 7.6mph /  12.2km/h 91% 0in /  0.0mm
20:17 49.3 °F /  9.6 °C 46.8 °F /  8.2 °C 30.4in /  1030.0hPa West 4mph /  6.4km/h 7.6mph /  12.2km/h 91% 0in /  0.0mm
20:22 49.1 °F /  9.5 °C 46.6 °F /  8.1 °C 30.4in /  1030.0hPa West 2.7mph /  4.3km/h 7.2mph /  11.6km/h 91% 0in /  0.0mm
20:27 48.9 °F /  9.4 °C 46.4 °F /  8.0 °C 30.4in /  1030.0hPa WSW 3.8mph /  6.1km/h 7.8mph /  12.6km/h 91% 0in /  0.0mm
20:32 48.7 °F /  9.3 °C 46.2 °F /  7.9 °C 30.4in /  1030.0hPa West 4.3mph /  6.9km/h 7.8mph /  12.6km/h 91% 0in /  0.0mm
20:37 48.6 °F /  9.2 °C 46 °F /  7.8 °C 30.4in /  1030.0hPa West 5.8mph /  9.3km/h 6.3mph /  10.1km/h 91% 0in /  0.0mm
20:42 48.4 °F /  9.1 °C 45.7 °F /  7.6 °C 30.4in /  1030.0hPa West 3.4mph /  5.5km/h 6.5mph /  10.5km/h 90% 0in /  0.0mm
20:47 48 °F /  8.9 °C 45.3 °F /  7.4 °C 30.4in /  1030.0hPa West 3.4mph /  5.5km/h 6.5mph /  10.5km/h 90% 0in /  0.0mm
20:52 47.7 °F /  8.7 °C 45 °F /  7.2 °C 30.4in /  1030.0hPa WNW 2.7mph /  4.3km/h 6.3mph /  10.1km/h 90% 0in /  0.0mm
20:57 47.3 °F /  8.5 °C 44.6 °F /  7.0 °C 30.4in /  1030.0hPa West 4.3mph /  6.9km/h 5.6mph /  9.0km/h 90% 0in /  0.0mm
21:02 46.9 °F /  8.3 °C 44.2 °F /  6.8 °C 30.4in /  1030.0hPa West 3.8mph /  6.1km/h 5.6mph /  9.0km/h 90% 0in /  0.0mm
21:03 46.9 °F /  8.3 °C 44.2 °F /  6.8 °C 30.4in /  1030.0hPa WSW 4mph /  6.4km/h 5.6mph /  9.0km/h 90% 0in /  0.0mm
21:08 46.6 °F /  8.1 °C 43.9 °F /  6.6 °C 30.4in /  1030.0hPa WSW 3.4mph /  5.5km/h 5.6mph /  9.0km/h 90% 0in /  0.0mm
21:13 46 °F /  7.8 °C 43.2 °F /  6.2 °C 30.4in /  1030.0hPa WSW 2.5mph /  4.0km/h 4.9mph /  7.9km/h 89% 0in /  0.0mm
21:18 45.1 °F /  7.3 °C 42.1 °F /  5.6 °C 30.4in /  1030.0hPa WSW 3.1mph /  5.0km/h 3.8mph /  6.1km/h 89% 0in /  0.0mm
21:23 44.8 °F /  7.1 °C 41.7 °F /  5.4 °C 30.4in /  1030.0hPa WSW 3.4mph /  5.5km/h 3.8mph /  6.1km/h 89% 0in /  0.0mm
21:28 44.2 °F /  6.8 °C 41.2 °F /  5.1 °C 30.4in /  1030.0hPa Calm   4.3mph /  6.9km/h 89% 0in /  0.0mm
21:33 44.2 °F /  6.8 °C 41.4 °F /  5.2 °C 30.4in /  1030.0hPa WSW 4.9mph /  7.9km/h 4.9mph /  7.9km/h 90% 0in /  0.0mm
21:38 44.8 °F /  7.1 °C 42.3 °F /  5.7 °C 30.4in /  1030.0hPa WSW 5.4mph /  8.7km/h 6mph /  9.7km/h 91% 0in /  0.0mm
21:43 45.1 °F /  7.3 °C 43 °F /  6.1 °C 30.4in /  1030.0hPa West 3.6mph /  5.8km/h 6mph /  9.7km/h 92% 0in /  0.0mm
21:48 45.1 °F /  7.3 °C 43.3 °F /  6.3 °C 30.4in /  1030.0hPa West 4.3mph /  6.9km/h 5.6mph /  9.0km/h 93% 0in /  0.0mm
21:53 45.1 °F /  7.3 °C 43.3 °F /  6.3 °C 30.4in /  1031.0hPa West 4.9mph /  7.9km/h 5.8mph /  9.3km/h 93% 0in /  0.0mm
21:58 45.1 °F /  7.3 °C 43.3 °F /  6.3 °C 30.4in /  1031.0hPa West 3.6mph /  5.8km/h 6mph /  9.7km/h 93% 0in /  0.0mm
22:03 44.8 °F /  7.1 °C 42.4 °F /  5.8 °C 30.4in /  1031.0hPa West 3.8mph /  6.1km/h 6mph /  9.7km/h 92% 0in /  0.0mm
22:08 44.2 °F /  6.8 °C 42.1 °F /  5.6 °C 30.4in /  1031.0hPa West 4mph /  6.4km/h 4.3mph /  6.9km/h 92% 0in /  0.0mm
22:13 44.2 °F /  6.8 °C 42.3 °F /  5.7 °C 30.4in /  1031.0hPa WSW 6mph /  9.7km/h 6mph /  9.7km/h 92% 0in /  0.0mm
22:18 44.4 °F /  6.9 °C 42.6 °F /  5.9 °C 30.4in /  1031.0hPa West 3.6mph /  5.8km/h 6mph /  9.7km/h 93% 0in /  0.0mm
22:23 44.8 °F /  7.1 °C 43.2 °F /  6.2 °C 30.4in /  1031.0hPa West 3.1mph /  5.0km/h 5.4mph /  8.7km/h 94% 0in /  0.0mm
22:28 44.2 °F /  6.8 °C 42.3 °F /  5.7 °C 30.4in /  1031.0hPa West 2.9mph /  4.7km/h 5.4mph /  8.7km/h 93% 0in /  0.0mm
22:33 43.5 °F /  6.4 °C 41.7 °F /  5.4 °C 30.4in /  1031.0hPa Calm   4.3mph /  6.9km/h 93% 0in /  0.0mm
22:38 43.5 °F /  6.4 °C 41.5 °F /  5.3 °C 30.4in /  1031.0hPa Calm   3.6mph /  5.8km/h 93% 0in /  0.0mm
22:43 43.2 °F /  6.2 °C 41.2 °F /  5.1 °C 30.4in /  1031.0hPa Calm   2.9mph /  4.7km/h 93% 0in /  0.0mm
22:48 42.8 °F /  6.0 °C 40.8 °F /  4.9 °C 30.4in /  1031.0hPa Calm     93% 0in /  0.0mm
22:53 42.4 °F /  5.8 °C 40.5 °F /  4.7 °C 30.4in /  1030.0hPa Calm   1.1mph /  1.8km/h 93% 0in /  0.0mm
22:58 42.1 °F /  5.6 °C 40.3 °F /  4.6 °C 30.4in /  1030.0hPa Calm   1.1mph /  1.8km/h 93% 0in /  0.0mm
23:03 41.9 °F /  5.5 °C 39.9 °F /  4.4 °C 30.4in /  1030.0hPa Calm     93% 0in /  0.0mm
23:08 41.5 °F /  5.3 °C 39.7 °F /  4.3 °C 30.4in /  1031.0hPa Calm   0.9mph /  1.4km/h 93% 0in /  0.0mm
23:13 41 °F /  5.0 °C 39 °F /  3.9 °C 30.4in /  1031.0hPa Calm   0.9mph /  1.4km/h 93% 0in /  0.0mm
23:18 40.8 °F /  4.9 °C 39 °F /  3.9 °C 30.4in /  1031.0hPa Calm   2.5mph /  4.0km/h 93% 0in /  0.0mm
23:23 40.8 °F /  4.9 °C 39.2 °F /  4.0 °C 30.4in /  1030.0hPa West 3.1mph /  5.0km/h 3.6mph /  5.8km/h 94% 0in /  0.0mm
23:28 40.6 °F /  4.8 °C 39.4 °F /  4.1 °C 30.4in /  1030.0hPa Calm   3.6mph /  5.8km/h 95% 0in /  0.0mm
23:33 40.6 °F /  4.8 °C 39.4 °F /  4.1 °C 30.4in /  1030.0hPa Calm   3.4mph /  5.5km/h 95% 0in /  0.0mm
23:38 40.3 °F /  4.6 °C 39 °F /  3.9 °C 30.4in /  1031.0hPa Calm     95% 0in /  0.0mm
23:43 40.5 °F /  4.7 °C 39 °F /  3.9 °C 30.4in /  1031.0hPa Calm     95% 0in /  0.0mm
23:48 40.5 °F /  4.7 °C 39.4 °F /  4.1 °C 30.4in /  1031.0hPa Calm     96% 0in /  0.0mm
23:53 40.3 °F /  4.6 °C 39.2 °F /  4.0 °C 30.4in /  1030.0hPa Calm     96% 0in /  0.0mm
23:58 40.1 °F /  4.5 °C 39 °F /  3.9 °C 30.4in /  1030.0hPa Calm     96% 0in /  0.0mm
Données Historique de Météo Turbie

Mise a jour : 26/05/2018 05:56:13
Généré par Cumulus 1.9.4 (1099)